AirNav   ProFlight Series 2 Aviation Headset
 
 1553 users online  

D49 Columbus Municipal Airport
Columbus, North Dakota, USA

GOING TO COLUMBUS?


FAA INFORMATION EFFECTIVE 16 JULY 2020

Location

FAA Identifier: D49
Lat/Long: 48-53-57.8850N 102-47-32.2450W
48-53.964750N 102-47.537417W
48.8994125,-102.7922903
(estimated)
Elevation: 1931 ft. / 589 m (estimated)
Variation: 12E (1985)
From city: 1 mile SW of COLUMBUS, ND
Time zone: UTC -5 (UTC -6 during Standard Time)
Zip code: 58727

Airport Operations

Airport use: Open to the public
Activation date: 07/1949
Control tower: no
ARTCC: MINNEAPOLIS CENTER
FSS: GRAND FORKS FLIGHT SERVICE STATION
NOTAMs facility: GFK (NOTAM-D service available)
Attendance: UNATNDD
Wind indicator: lighted
Segmented circle: no
Lights: SS-SR

Airport Communications

CTAF: 122.9
WX AWOS-3 at D50 (20 nm W): 118.025 (701-965-6732)

Airport Services

Parking: tiedowns
Airframe service: NONE
Powerplant service: NONE
Bottled oxygen: NONE
Bulk oxygen: NONE

Runway Information

Runway 7/25

Dimensions: 2560 x 100 ft. / 780 x 30 m
Surface: turf, in fair condition
Runway edge lights: non-standard
RY 07/25 HAS THLD END LGTS WITH REFLECTOR SIDE PANELS FOR NGT USE.
Runway edge markings: MKD WITH FADED BLACK/WHITE EDGE AND END PANELS.
RUNWAY 7  RUNWAY 25
Latitude: 48-53.965000N48-53.964500N
Longitude: 102-47.856667W102-47.218167W
Elevation: 1931.0 ft.1925.0 ft.
Traffic pattern: leftleft
Runway heading: 078 magnetic, 090 true258 magnetic, 270 true
Displaced threshold: no208 ft.
DSPLCD THR MKD WITH RED/WHITE PANEL AND LGTD.
Markings: NSTDNSTD
Visual slope indicator: panels that may or may not be lighted, on left (5.00 degrees glide path)
APAP LEFT & RIGHT SIDES.
panels that may or may not be lighted, on right (5.00 degrees glide path)
APAP LEFT & RIGHT SIDES.
Runway end identifier lights: nono
Obstructions: none17 ft. road, 47 ft. from runway, 130 ft. left and right of centerline, 2:1 slope to clear
+17 FT ROAD 250 FT FM RWY 25 DSPLCD THR, 150 L/R OF CNTRLN, APCH SLOPE RATIO 14:1.

Airport Ownership and Management from official FAA records

Ownership: Publicly-owned
Owner: COLUMBUS ARPT AUTH
BOX 42
COLUMBUS, ND 58727
Phone 701-339-8420
KEITH BERG - CLERK FOR APT AUTH
Manager: RICH CASTELL
BOX 42
COLUMBUS, ND 58727
Phone (701) 216-0030
ADNL CTC PHONE 701-939-5038 OR KEITH BERG 701-339-8420.

Airport Operational Statistics

Aircraft based on the field: 2
Single engine airplanes: 2
    
Aircraft operations: 120/year *
83% transient general aviation
17% air taxi
* for 12-month period ending 03 September 2019

Additional Remarks

NO SNOW REMOVAL AVAILABLE WINTER MONTHS; CFM WINTER CONDS WITH AMGR 701-339-0355, 701-939-5038, OR 701-339-8420.
TEST ARPT FOR RY MKG SYSTEM.
RY 07/25 APAP-PLYWOOD PANELS LGTD NGT.
RY 25 HAS -5 FT DITCH 30 FT FROM THR.
WINDSOCK PENETRATES TRSN SFC.
FOR CD CTC MINNEAPOLIS ARTCC AT 651-463-5588.

Instrument Procedures

There are no published instrument procedures at D49.

Some nearby airports with instrument procedures:

D50 - Crosby Municipal Airport (20 nm W)
D60 - Tioga Municipal Airport (31 nm S)
7K5 - Kenmare Municipal Airport (33 nm SE)
08D - Stanley Municipal Airport (39 nm SE)
KHBC - Mohall Municipal Airport (50 nm E)
 
Loc | Ops | Rwys | IFR | FBO | Links
Com | Nav | Svcs | Stats | Notes

Bismarck Aero Center
AirBoss

 
Area around D49 (Columbus Municipal Airport)
 
Road maps at: MapQuest Bing Google
 
Aerial photo
WARNING: Photo may not be current or correct
Aerial photo of D49 (Columbus Municipal Airport)
Do you have a better or more recent aerial photo of Columbus Municipal Airport that you would like to share? If so, please send us your photo.

 
Sectional chart

 
Airport distance calculator
Flying to Columbus Municipal Airport? Find the distance to fly.

From to D49

Sunrise and sunset
Times for 04-Aug-2020
 Local
(UTC-5)
 Zulu
(UTC)
Morning civil twilight05:5410:54
Sunrise06:3111:31
Sunset21:2302:23
Evening civil twilight22:0003:00

Current date and time
Zulu (UTC)  04-Aug-2020 17:19:40
Local (UTC-5)  04-Aug-2020 12:19:40
 
METAR
KD50 
20nm W 
041655Z AUTO 18011KT 10SM CLR 19/15 A3002 RMK AO2
CYEN 
20nm N 
041706Z AUTO 17009G15KT 9SM -RA FEW110 SCT140 20/15 A3000 RMK SLP165 DENSITY ALT 2700FT
KD60 
31nm S 
041655Z AUTO 17012G18KT 10SM FEW080 19/15 A3004 RMK AO2
K08D 
39nm SE 
041655Z AUTO 15011G18KT 10SM CLR 19/16 A3003 RMK AO2
TAF
CYEN 
20nm N 
041315Z 0413/0424 10008KT P6SM SCT050 BKN120 TEMPO 0413/0415 5SM -SHRA BR BKN050CB OVC120 FM041500 13012KT P6SM SCT050 BKN200 TEMPO 0415/0420 BKN050 OVC200 BECMG 0416/0418 20015G25KT FM042000 21010KT P6SM OVC060 PROB40 0420/0424 VRB20G30KT 4SM TSRA OVC040CB RMK FCST BASED ON AUTO OBS. NXT FCST BY 041800Z
NOTAMs
Click for the latest NOTAMs
NOTAMs are issued by the DoD/FAA and will open in a separate window not controlled by AirNav.

 

 
 

Would you like to see your business listed on this page?

 If your business provides an interesting product or service to pilots, flight crews, aircraft, or users of the Columbus Municipal Airport, you should consider listing it here.  To start the listing process, click on the button below
 
Add a business
 

Other Pages about Columbus Municipal Airport

Update a link
 
Copyright © AirNav, LLC. All rights reserved. Privacy Policy  Contact